sensor_id;sensor_type;location;lat;lon;timestamp;P1;durP1;ratioP1;P2;durP2;ratioP2
70532;SDS011;58088;51.186;17.130;2024-03-17T00:01:09;5.50;;;1.40;;
70532;SDS011;58088;51.186;17.130;2024-03-17T00:03:35;4.40;;;1.30;;
70532;SDS011;58088;51.186;17.130;2024-03-17T00:06:02;5.50;;;1.70;;
70532;SDS011;58088;51.186;17.130;2024-03-17T00:08:28;4.60;;;1.30;;
70532;SDS011;58088;51.186;17.130;2024-03-17T00:10:54;4.40;;;1.20;;
70532;SDS011;58088;51.186;17.130;2024-03-17T00:13:21;5.10;;;1.30;;
70532;SDS011;58088;51.186;17.130;2024-03-17T00:15:50;6.60;;;1.40;;
70532;SDS011;58088;51.186;17.130;2024-03-17T00:18:17;6.50;;;1.40;;
70532;SDS011;58088;51.186;17.130;2024-03-17T00:20:43;5.10;;;1.10;;
70532;SDS011;58088;51.186;17.130;2024-03-17T00:23:10;8.20;;;1.60;;
70532;SDS011;58088;51.186;17.130;2024-03-17T00:25:38;5.40;;;1.60;;
70532;SDS011;58088;51.186;17.130;2024-03-17T00:28:05;8.10;;;1.40;;
70532;SDS011;58088;51.186;17.130;2024-03-17T00:30:32;4.40;;;1.20;;
70532;SDS011;58088;51.186;17.130;2024-03-17T00:32:59;7.30;;;1.50;;
70532;SDS011;58088;51.186;17.130;2024-03-17T00:35:26;7.40;;;1.60;;
70532;SDS011;58088;51.186;17.130;2024-03-17T00:37:52;5.80;;;1.60;;
70532;SDS011;58088;51.186;17.130;2024-03-17T00:40:20;7.30;;;1.40;;
70532;SDS011;58088;51.186;17.130;2024-03-17T00:42:46;6.10;;;1.60;;
70532;SDS011;58088;51.186;17.130;2024-03-17T00:45:13;7.50;;;1.60;;
70532;SDS011;58088;51.186;17.130;2024-03-17T00:47:39;6.20;;;1.60;;
70532;SDS011;58088;51.186;17.130;2024-03-17T00:50:06;6.20;;;1.60;;
70532;SDS011;58088;51.186;17.130;2024-03-17T00:52:35;5.60;;;1.30;;
70532;SDS011;58088;51.186;17.130;2024-03-17T00:55:01;4.20;;;1.50;;
70532;SDS011;58088;51.186;17.130;2024-03-17T00:57:28;8.30;;;1.70;;
70532;SDS011;58088;51.186;17.130;2024-03-17T00:59:54;5.30;;;1.40;;
70532;SDS011;58088;51.186;17.130;2024-03-17T01:02:20;3.70;;;1.40;;
70532;SDS011;58088;51.186;17.130;2024-03-17T01:04:47;4.30;;;1.50;;
70532;SDS011;58088;51.186;17.130;2024-03-17T01:07:14;5.20;;;1.40;;
70532;SDS011;58088;51.186;17.130;2024-03-17T01:09:40;7.00;;;1.90;;
70532;SDS011;58088;51.186;17.130;2024-03-17T01:12:06;5.50;;;1.40;;
70532;SDS011;58088;51.186;17.130;2024-03-17T01:14:33;5.30;;;1.60;;
70532;SDS011;58088;51.186;17.130;2024-03-17T01:17:00;7.20;;;1.80;;
70532;SDS011;58088;51.186;17.130;2024-03-17T01:19:31;4.70;;;1.50;;
70532;SDS011;58088;51.186;17.130;2024-03-17T01:22:00;6.40;;;1.60;;
70532;SDS011;58088;51.186;17.130;2024-03-17T01:24:26;3.70;;;1.60;;
70532;SDS011;58088;51.186;17.130;2024-03-17T01:26:58;6.70;;;1.70;;
70532;SDS011;58088;51.186;17.130;2024-03-17T01:29:26;6.40;;;1.60;;
70532;SDS011;58088;51.186;17.130;2024-03-17T01:31:52;7.00;;;1.70;;
70532;SDS011;58088;51.186;17.130;2024-03-17T01:34:19;7.60;;;1.70;;
70532;SDS011;58088;51.186;17.130;2024-03-17T01:36:46;4.50;;;1.40;;
70532;SDS011;58088;51.186;17.130;2024-03-17T01:39:12;6.10;;;1.90;;
70532;SDS011;58088;51.186;17.130;2024-03-17T01:41:38;7.20;;;1.80;;
70532;SDS011;58088;51.186;17.130;2024-03-17T01:44:05;4.90;;;1.30;;
70532;SDS011;58088;51.186;17.130;2024-03-17T01:46:33;7.20;;;1.70;;
70532;SDS011;58088;51.186;17.130;2024-03-17T01:48:59;4.50;;;1.40;;
70532;SDS011;58088;51.186;17.130;2024-03-17T01:51:26;6.00;;;1.50;;
70532;SDS011;58088;51.186;17.130;2024-03-17T01:53:53;8.20;;;1.60;;
70532;SDS011;58088;51.186;17.130;2024-03-17T01:56:23;5.20;;;1.60;;
70532;SDS011;58088;51.186;17.130;2024-03-17T01:58:50;5.90;;;1.50;;
70532;SDS011;58088;51.186;17.130;2024-03-17T02:05:06;5.50;;;1.50;;
70532;SDS011;58088;51.186;17.130;2024-03-17T02:07:32;5.50;;;1.40;;
70532;SDS011;58088;51.186;17.130;2024-03-17T02:09:58;6.50;;;2.00;;
70532;SDS011;58088;51.186;17.130;2024-03-17T02:12:25;5.90;;;1.20;;
70532;SDS011;58088;51.186;17.130;2024-03-17T02:14:51;4.30;;;1.30;;
70532;SDS011;58088;51.186;17.130;2024-03-17T02:17:17;5.20;;;1.10;;
70532;SDS011;58088;51.186;17.130;2024-03-17T02:19:44;4.30;;;1.00;;
70532;SDS011;58088;51.186;17.130;2024-03-17T02:22:13;6.80;;;1.70;;
70532;SDS011;58088;51.186;17.130;2024-03-17T02:24:43;5.70;;;1.30;;
70532;SDS011;58088;51.186;17.130;2024-03-17T02:27:10;7.50;;;1.80;;
70532;SDS011;58088;51.186;17.130;2024-03-17T02:29:36;8.70;;;1.80;;
70532;SDS011;58088;51.186;17.130;2024-03-17T02:32:03;5.10;;;1.40;;
70532;SDS011;58088;51.186;17.130;2024-03-17T02:34:36;4.70;;;1.20;;
70532;SDS011;58088;51.186;17.130;2024-03-17T02:37:03;7.40;;;1.50;;
70532;SDS011;58088;51.186;17.130;2024-03-17T02:39:31;4.20;;;1.40;;
70532;SDS011;58088;51.186;17.130;2024-03-17T02:42:04;5.70;;;1.70;;
70532;SDS011;58088;51.186;17.130;2024-03-17T02:44:34;4.60;;;1.40;;
70532;SDS011;58088;51.186;17.130;2024-03-17T02:47:02;5.30;;;1.40;;
70532;SDS011;58088;51.186;17.130;2024-03-17T02:49:36;7.20;;;1.50;;
70532;SDS011;58088;51.186;17.130;2024-03-17T02:52:07;4.10;;;1.40;;
70532;SDS011;58088;51.186;17.130;2024-03-17T02:54:36;5.10;;;1.30;;
70532;SDS011;58088;51.186;17.130;2024-03-17T02:57:04;9.10;;;1.80;;
70532;SDS011;58088;51.186;17.130;2024-03-17T02:59:30;6.80;;;1.60;;
70532;SDS011;58088;51.186;17.130;2024-03-17T03:02:00;6.80;;;1.20;;
70532;SDS011;58088;51.186;17.130;2024-03-17T03:04:27;4.90;;;1.20;;
70532;SDS011;58088;51.186;17.130;2024-03-17T03:06:53;3.90;;;1.30;;
70532;SDS011;58088;51.186;17.130;2024-03-17T03:09:19;6.20;;;1.50;;
70532;SDS011;58088;51.186;17.130;2024-03-17T03:11:58;7.80;;;1.40;;
70532;SDS011;58088;51.186;17.130;2024-03-17T03:14:26;6.80;;;1.20;;
70532;SDS011;58088;51.186;17.130;2024-03-17T03:16:52;5.30;;;1.20;;
70532;SDS011;58088;51.186;17.130;2024-03-17T03:19:18;5.00;;;1.60;;
70532;SDS011;58088;51.186;17.130;2024-03-17T03:21:45;6.00;;;1.60;;
70532;SDS011;58088;51.186;17.130;2024-03-17T03:24:14;6.80;;;1.60;;
70532;SDS011;58088;51.186;17.130;2024-03-17T03:26:41;8.60;;;1.80;;
70532;SDS011;58088;51.186;17.130;2024-03-17T03:29:07;6.90;;;1.50;;
70532;SDS011;58088;51.186;17.130;2024-03-17T03:31:34;5.80;;;1.40;;
70532;SDS011;58088;51.186;17.130;2024-03-17T03:34:00;6.40;;;1.60;;
70532;SDS011;58088;51.186;17.130;2024-03-17T03:36:29;5.10;;;1.40;;
70532;SDS011;58088;51.186;17.130;2024-03-17T03:38:55;6.70;;;1.60;;
70532;SDS011;58088;51.186;17.130;2024-03-17T03:41:23;7.70;;;1.40;;
70532;SDS011;58088;51.186;17.130;2024-03-17T03:43:53;4.50;;;1.30;;
70532;SDS011;58088;51.186;17.130;2024-03-17T03:46:19;3.70;;;0.90;;
70532;SDS011;58088;51.186;17.130;2024-03-17T03:48:46;6.50;;;1.40;;
70532;SDS011;58088;51.186;17.130;2024-03-17T03:51:12;9.20;;;1.60;;
70532;SDS011;58088;51.186;17.130;2024-03-17T03:53:39;4.80;;;1.20;;
70532;SDS011;58088;51.186;17.130;2024-03-17T03:56:08;6.30;;;1.50;;
70532;SDS011;58088;51.186;17.130;2024-03-17T03:58:37;4.20;;;1.00;;
70532;SDS011;58088;51.186;17.130;2024-03-17T04:01:05;7.00;;;1.60;;
70532;SDS011;58088;51.186;17.130;2024-03-17T04:03:33;6.10;;;1.40;;
70532;SDS011;58088;51.186;17.130;2024-03-17T04:06:05;7.40;;;1.30;;
70532;SDS011;58088;51.186;17.130;2024-03-17T04:08:33;5.30;;;1.30;;
70532;SDS011;58088;51.186;17.130;2024-03-17T04:11:01;4.50;;;1.20;;
70532;SDS011;58088;51.186;17.130;2024-03-17T04:13:29;10.80;;;1.60;;
70532;SDS011;58088;51.186;17.130;2024-03-17T04:15:56;5.20;;;1.50;;
70532;SDS011;58088;51.186;17.130;2024-03-17T04:18:25;6.20;;;1.30;;
70532;SDS011;58088;51.186;17.130;2024-03-17T04:20:53;4.70;;;1.50;;
70532;SDS011;58088;51.186;17.130;2024-03-17T04:23:20;4.50;;;1.50;;
70532;SDS011;58088;51.186;17.130;2024-03-17T04:25:51;8.20;;;1.70;;
70532;SDS011;58088;51.186;17.130;2024-03-17T04:28:18;4.50;;;1.30;;
70532;SDS011;58088;51.186;17.130;2024-03-17T04:30:45;8.80;;;1.70;;
70532;SDS011;58088;51.186;17.130;2024-03-17T04:33:12;4.90;;;1.10;;
70532;SDS011;58088;51.186;17.130;2024-03-17T04:35:40;6.00;;;1.40;;
70532;SDS011;58088;51.186;17.130;2024-03-17T04:38:09;6.30;;;1.40;;
70532;SDS011;58088;51.186;17.130;2024-03-17T04:40:42;7.40;;;1.30;;
70532;SDS011;58088;51.186;17.130;2024-03-17T04:43:08;8.50;;;1.60;;
70532;SDS011;58088;51.186;17.130;2024-03-17T04:45:35;6.50;;;1.60;;
70532;SDS011;58088;51.186;17.130;2024-03-17T04:48:01;7.80;;;1.70;;
70532;SDS011;58088;51.186;17.130;2024-03-17T04:50:28;6.80;;;1.40;;
70532;SDS011;58088;51.186;17.130;2024-03-17T04:52:59;7.40;;;1.30;;
70532;SDS011;58088;51.186;17.130;2024-03-17T04:55:26;6.80;;;1.60;;
70532;SDS011;58088;51.186;17.130;2024-03-17T04:57:52;8.20;;;1.30;;
70532;SDS011;58088;51.186;17.130;2024-03-17T05:00:18;6.40;;;1.40;;
70532;SDS011;58088;51.186;17.130;2024-03-17T05:02:46;6.40;;;1.30;;
70532;SDS011;58088;51.186;17.130;2024-03-17T05:05:13;4.10;;;1.20;;
70532;SDS011;58088;51.186;17.130;2024-03-17T05:07:39;5.40;;;1.50;;
70532;SDS011;58088;51.186;17.130;2024-03-17T05:10:06;6.10;;;1.60;;
70532;SDS011;58088;51.186;17.130;2024-03-17T05:12:32;6.90;;;1.20;;
70532;SDS011;58088;51.186;17.130;2024-03-17T05:14:58;6.90;;;1.70;;
70532;SDS011;58088;51.186;17.130;2024-03-17T05:17:25;6.40;;;1.50;;
70532;SDS011;58088;51.186;17.130;2024-03-17T05:19:51;5.80;;;1.70;;
70532;SDS011;58088;51.186;17.130;2024-03-17T05:22:17;5.70;;;1.80;;
70532;SDS011;58088;51.186;17.130;2024-03-17T05:24:44;5.10;;;1.20;;
70532;SDS011;58088;51.186;17.130;2024-03-17T05:27:10;9.90;;;2.00;;
70532;SDS011;58088;51.186;17.130;2024-03-17T05:29:36;7.90;;;1.90;;
70532;SDS011;58088;51.186;17.130;2024-03-17T05:32:05;6.00;;;1.30;;
70532;SDS011;58088;51.186;17.130;2024-03-17T05:34:31;7.50;;;1.50;;
70532;SDS011;58088;51.186;17.130;2024-03-17T05:36:58;7.80;;;1.90;;
70532;SDS011;58088;51.186;17.130;2024-03-17T05:39:24;7.10;;;1.30;;
70532;SDS011;58088;51.186;17.130;2024-03-17T05:41:51;5.70;;;1.40;;
70532;SDS011;58088;51.186;17.130;2024-03-17T05:44:17;7.50;;;1.40;;
70532;SDS011;58088;51.186;17.130;2024-03-17T05:46:44;6.00;;;1.70;;
70532;SDS011;58088;51.186;17.130;2024-03-17T05:49:10;4.90;;;1.50;;
70532;SDS011;58088;51.186;17.130;2024-03-17T05:51:37;7.60;;;1.60;;
70532;SDS011;58088;51.186;17.130;2024-03-17T05:54:03;6.20;;;1.80;;
70532;SDS011;58088;51.186;17.130;2024-03-17T05:56:29;5.90;;;1.50;;
70532;SDS011;58088;51.186;17.130;2024-03-17T05:58:55;7.00;;;1.80;;
70532;SDS011;58088;51.186;17.130;2024-03-17T06:01:22;7.40;;;1.60;;
70532;SDS011;58088;51.186;17.130;2024-03-17T06:03:52;6.40;;;1.40;;
70532;SDS011;58088;51.186;17.130;2024-03-17T06:06:19;6.90;;;1.70;;
70532;SDS011;58088;51.186;17.130;2024-03-17T06:08:46;6.60;;;1.50;;
70532;SDS011;58088;51.186;17.130;2024-03-17T06:11:12;7.00;;;1.70;;
70532;SDS011;58088;51.186;17.130;2024-03-17T06:13:39;5.90;;;1.40;;
70532;SDS011;58088;51.186;17.130;2024-03-17T06:16:05;9.50;;;1.50;;
70532;SDS011;58088;51.186;17.130;2024-03-17T06:18:31;5.50;;;1.40;;
70532;SDS011;58088;51.186;17.130;2024-03-17T06:20:58;6.40;;;1.70;;
70532;SDS011;58088;51.186;17.130;2024-03-17T06:23:27;7.30;;;1.70;;
70532;SDS011;58088;51.186;17.130;2024-03-17T06:25:54;7.20;;;1.40;;
70532;SDS011;58088;51.186;17.130;2024-03-17T06:28:21;8.10;;;1.50;;
70532;SDS011;58088;51.186;17.130;2024-03-17T06:30:58;5.60;;;1.40;;
70532;SDS011;58088;51.186;17.130;2024-03-17T06:33:26;6.30;;;1.40;;
70532;SDS011;58088;51.186;17.130;2024-03-17T06:35:54;7.20;;;1.40;;
70532;SDS011;58088;51.186;17.130;2024-03-17T06:38:21;6.20;;;1.10;;
70532;SDS011;58088;51.186;17.130;2024-03-17T06:40:51;7.00;;;1.20;;
70532;SDS011;58088;51.186;17.130;2024-03-17T06:43:19;6.00;;;1.30;;
70532;SDS011;58088;51.186;17.130;2024-03-17T06:46:00;5.80;;;1.60;;
70532;SDS011;58088;51.186;17.130;2024-03-17T06:48:28;5.10;;;1.10;;
70532;SDS011;58088;51.186;17.130;2024-03-17T06:50:54;6.50;;;1.10;;
70532;SDS011;58088;51.186;17.130;2024-03-17T06:53:24;6.70;;;1.00;;
70532;SDS011;58088;51.186;17.130;2024-03-17T06:56:00;5.70;;;1.10;;
70532;SDS011;58088;51.186;17.130;2024-03-17T06:58:40;5.30;;;0.90;;
70532;SDS011;58088;51.186;17.130;2024-03-17T07:01:08;8.50;;;1.50;;
70532;SDS011;58088;51.186;17.130;2024-03-17T07:03:35;3.60;;;0.90;;
70532;SDS011;58088;51.186;17.130;2024-03-17T07:06:02;6.50;;;1.10;;
70532;SDS011;58088;51.186;17.130;2024-03-17T07:08:30;6.80;;;1.00;;
70532;SDS011;58088;51.186;17.130;2024-03-17T07:10:57;5.50;;;0.90;;
70532;SDS011;58088;51.186;17.130;2024-03-17T07:13:25;6.50;;;1.20;;
70532;SDS011;58088;51.186;17.130;2024-03-17T07:15:54;9.10;;;1.20;;
70532;SDS011;58088;51.186;17.130;2024-03-17T07:18:20;5.10;;;1.00;;
70532;SDS011;58088;51.186;17.130;2024-03-17T07:20:46;5.10;;;0.70;;
70532;SDS011;58088;51.186;17.130;2024-03-17T07:23:14;7.70;;;0.80;;
70532;SDS011;58088;51.186;17.130;2024-03-17T07:25:42;4.00;;;0.80;;
70532;SDS011;58088;51.186;17.130;2024-03-17T07:28:09;6.40;;;0.90;;
70532;SDS011;58088;51.186;17.130;2024-03-17T07:30:35;6.50;;;1.20;;
70532;SDS011;58088;51.186;17.130;2024-03-17T07:33:01;5.30;;;1.10;;
70532;SDS011;58088;51.186;17.130;2024-03-17T07:35:28;10.10;;;1.40;;
70532;SDS011;58088;51.186;17.130;2024-03-17T07:37:54;6.70;;;1.30;;
70532;SDS011;58088;51.186;17.130;2024-03-17T07:40:20;6.80;;;1.00;;
70532;SDS011;58088;51.186;17.130;2024-03-17T07:42:46;7.10;;;1.00;;
70532;SDS011;58088;51.186;17.130;2024-03-17T07:45:12;6.80;;;1.10;;
70532;SDS011;58088;51.186;17.130;2024-03-17T07:47:39;3.80;;;0.80;;
70532;SDS011;58088;51.186;17.130;2024-03-17T07:50:06;6.80;;;1.30;;
70532;SDS011;58088;51.186;17.130;2024-03-17T07:52:32;7.80;;;1.20;;
70532;SDS011;58088;51.186;17.130;2024-03-17T07:54:58;4.40;;;0.90;;
70532;SDS011;58088;51.186;17.130;2024-03-17T07:57:24;6.20;;;1.10;;
70532;SDS011;58088;51.186;17.130;2024-03-17T07:59:50;5.60;;;1.10;;
70532;SDS011;58088;51.186;17.130;2024-03-17T08:02:20;5.80;;;1.00;;
70532;SDS011;58088;51.186;17.130;2024-03-17T08:04:46;8.50;;;1.40;;
70532;SDS011;58088;51.186;17.130;2024-03-17T08:07:12;5.50;;;1.30;;
70532;SDS011;58088;51.186;17.130;2024-03-17T08:09:39;10.10;;;1.30;;
70532;SDS011;58088;51.186;17.130;2024-03-17T08:12:05;6.60;;;1.30;;
70532;SDS011;58088;51.186;17.130;2024-03-17T08:14:32;6.60;;;1.20;;
70532;SDS011;58088;51.186;17.130;2024-03-17T08:16:58;5.80;;;1.10;;
70532;SDS011;58088;51.186;17.130;2024-03-17T08:19:24;6.40;;;0.90;;
70532;SDS011;58088;51.186;17.130;2024-03-17T08:21:55;6.40;;;0.80;;
70532;SDS011;58088;51.186;17.130;2024-03-17T08:24:30;4.60;;;0.70;;
70532;SDS011;58088;51.186;17.130;2024-03-17T08:26:56;2.90;;;0.80;;
70532;SDS011;58088;51.186;17.130;2024-03-17T08:29:22;5.00;;;0.80;;
70532;SDS011;58088;51.186;17.130;2024-03-17T08:31:49;5.20;;;0.90;;
70532;SDS011;58088;51.186;17.130;2024-03-17T08:34:15;6.90;;;0.80;;
70532;SDS011;58088;51.186;17.130;2024-03-17T08:36:42;4.80;;;0.70;;
70532;SDS011;58088;51.186;17.130;2024-03-17T08:39:08;5.40;;;0.90;;
70532;SDS011;58088;51.186;17.130;2024-03-17T08:41:37;3.40;;;0.80;;
70532;SDS011;58088;51.186;17.130;2024-03-17T08:44:03;3.50;;;0.80;;
70532;SDS011;58088;51.186;17.130;2024-03-17T08:46:29;4.00;;;0.90;;
70532;SDS011;58088;51.186;17.130;2024-03-17T08:48:57;5.50;;;1.10;;
70532;SDS011;58088;51.186;17.130;2024-03-17T08:51:24;3.60;;;0.60;;
70532;SDS011;58088;51.186;17.130;2024-03-17T08:53:50;3.90;;;1.00;;
70532;SDS011;58088;51.186;17.130;2024-03-17T08:56:18;4.30;;;0.60;;
70532;SDS011;58088;51.186;17.130;2024-03-17T08:58:46;5.60;;;1.00;;
70532;SDS011;58088;51.186;17.130;2024-03-17T09:01:15;5.20;;;0.70;;
70532;SDS011;58088;51.186;17.130;2024-03-17T09:03:42;5.20;;;1.10;;
70532;SDS011;58088;51.186;17.130;2024-03-17T09:06:16;7.00;;;0.90;;
70532;SDS011;58088;51.186;17.130;2024-03-17T09:08:42;1.90;;;0.60;;
70532;SDS011;58088;51.186;17.130;2024-03-17T09:11:12;5.20;;;0.60;;
70532;SDS011;58088;51.186;17.130;2024-03-17T09:13:39;6.70;;;1.00;;
70532;SDS011;58088;51.186;17.130;2024-03-17T09:16:06;3.30;;;0.70;;
70532;SDS011;58088;51.186;17.130;2024-03-17T09:18:37;3.80;;;0.90;;
70532;SDS011;58088;51.186;17.130;2024-03-17T09:21:05;3.70;;;0.70;;
70532;SDS011;58088;51.186;17.130;2024-03-17T09:23:36;5.00;;;0.80;;
70532;SDS011;58088;51.186;17.130;2024-03-17T09:26:10;2.50;;;0.50;;
70532;SDS011;58088;51.186;17.130;2024-03-17T09:28:43;5.20;;;1.10;;
70532;SDS011;58088;51.186;17.130;2024-03-17T09:31:12;4.70;;;0.80;;
70532;SDS011;58088;51.186;17.130;2024-03-17T09:33:39;2.60;;;0.70;;
70532;SDS011;58088;51.186;17.130;2024-03-17T09:36:07;5.20;;;0.80;;
70532;SDS011;58088;51.186;17.130;2024-03-17T09:38:37;4.20;;;0.90;;
70532;SDS011;58088;51.186;17.130;2024-03-17T09:41:06;6.90;;;0.90;;
70532;SDS011;58088;51.186;17.130;2024-03-17T09:43:35;4.70;;;0.70;;
70532;SDS011;58088;51.186;17.130;2024-03-17T09:46:05;7.50;;;0.90;;
70532;SDS011;58088;51.186;17.130;2024-03-17T09:48:34;4.10;;;0.80;;
70532;SDS011;58088;51.186;17.130;2024-03-17T09:51:02;4.90;;;1.10;;
70532;SDS011;58088;51.186;17.130;2024-03-17T09:53:31;4.40;;;0.80;;
70532;SDS011;58088;51.186;17.130;2024-03-17T09:56:11;7.50;;;1.10;;
70532;SDS011;58088;51.186;17.130;2024-03-17T09:58:49;4.00;;;0.80;;
70532;SDS011;58088;51.186;17.130;2024-03-17T10:01:17;4.00;;;0.90;;
70532;SDS011;58088;51.186;17.130;2024-03-17T10:06:27;4.70;;;0.80;;
70532;SDS011;58088;51.186;17.130;2024-03-17T10:08:58;1.90;;;0.60;;
70532;SDS011;58088;51.186;17.130;2024-03-17T10:11:41;6.40;;;1.10;;
70532;SDS011;58088;51.186;17.130;2024-03-17T10:14:08;6.20;;;1.00;;
70532;SDS011;58088;51.186;17.130;2024-03-17T10:16:37;4.10;;;0.90;;
70532;SDS011;58088;51.186;17.130;2024-03-17T10:19:15;5.50;;;0.80;;
70532;SDS011;58088;51.186;17.130;2024-03-17T10:21:50;4.10;;;1.00;;
70532;SDS011;58088;51.186;17.130;2024-03-17T10:24:26;3.30;;;0.70;;
70532;SDS011;58088;51.186;17.130;2024-03-17T10:26:58;3.70;;;0.60;;
70532;SDS011;58088;51.186;17.130;2024-03-17T10:34:39;5.20;;;0.90;;
70532;SDS011;58088;51.186;17.130;2024-03-17T10:39:54;3.40;;;0.70;;
70532;SDS011;58088;51.186;17.130;2024-03-17T10:42:25;4.30;;;1.00;;
70532;SDS011;58088;51.186;17.130;2024-03-17T10:45:08;4.80;;;0.80;;
70532;SDS011;58088;51.186;17.130;2024-03-17T10:47:35;4.70;;;0.80;;
70532;SDS011;58088;51.186;17.130;2024-03-17T10:50:02;3.60;;;0.50;;
70532;SDS011;58088;51.186;17.130;2024-03-17T10:52:33;2.80;;;0.80;;
70532;SDS011;58088;51.186;17.130;2024-03-17T10:55:08;3.00;;;0.40;;
70532;SDS011;58088;51.186;17.130;2024-03-17T10:57:42;5.70;;;0.90;;
70532;SDS011;58088;51.186;17.130;2024-03-17T11:00:14;4.00;;;0.90;;
70532;SDS011;58088;51.186;17.130;2024-03-17T11:02:52;6.30;;;0.90;;
70532;SDS011;58088;51.186;17.130;2024-03-17T11:05:28;5.40;;;0.80;;
70532;SDS011;58088;51.186;17.130;2024-03-17T11:07:57;5.90;;;0.80;;
70532;SDS011;58088;51.186;17.130;2024-03-17T11:10:29;6.50;;;1.00;;
70532;SDS011;58088;51.186;17.130;2024-03-17T11:13:02;4.30;;;0.60;;
70532;SDS011;58088;51.186;17.130;2024-03-17T11:20:41;1.50;;;0.50;;
70532;SDS011;58088;51.186;17.130;2024-03-17T11:23:26;4.70;;;0.80;;
70532;SDS011;58088;51.186;17.130;2024-03-17T11:25:59;6.50;;;1.10;;
70532;SDS011;58088;51.186;17.130;2024-03-17T11:28:45;3.90;;;0.70;;
70532;SDS011;58088;51.186;17.130;2024-03-17T11:31:44;5.90;;;0.70;;
70532;SDS011;58088;51.186;17.130;2024-03-17T11:34:38;4.30;;;0.60;;
70532;SDS011;58088;51.186;17.130;2024-03-17T11:37:40;6.10;;;0.90;;
70532;SDS011;58088;51.186;17.130;2024-03-17T11:40:35;4.70;;;1.00;;
70532;SDS011;58088;51.186;17.130;2024-03-17T11:43:04;3.30;;;0.80;;
70532;SDS011;58088;51.186;17.130;2024-03-17T11:45:33;5.20;;;0.60;;
70532;SDS011;58088;51.186;17.130;2024-03-17T11:48:00;1.80;;;0.60;;
70532;SDS011;58088;51.186;17.130;2024-03-17T11:50:33;8.90;;;1.10;;
70532;SDS011;58088;51.186;17.130;2024-03-17T11:53:00;3.40;;;0.60;;
70532;SDS011;58088;51.186;17.130;2024-03-17T11:55:27;4.40;;;0.70;;
70532;SDS011;58088;51.186;17.130;2024-03-17T11:57:57;3.30;;;0.40;;
70532;SDS011;58088;51.186;17.130;2024-03-17T12:00:24;4.80;;;1.10;;
70532;SDS011;58088;51.186;17.130;2024-03-17T12:02:52;3.50;;;0.70;;
70532;SDS011;58088;51.186;17.130;2024-03-17T12:05:20;5.70;;;0.70;;
70532;SDS011;58088;51.186;17.130;2024-03-17T12:07:48;4.70;;;0.70;;
70532;SDS011;58088;51.186;17.130;2024-03-17T12:10:14;5.60;;;0.70;;
70532;SDS011;58088;51.186;17.130;2024-03-17T12:12:47;2.40;;;0.70;;
70532;SDS011;58088;51.186;17.130;2024-03-17T12:15:19;4.70;;;1.00;;
70532;SDS011;58088;51.186;17.130;2024-03-17T12:17:46;7.00;;;1.00;;
70532;SDS011;58088;51.186;17.130;2024-03-17T12:20:20;5.00;;;0.80;;
70532;SDS011;58088;51.186;17.130;2024-03-17T12:22:48;5.20;;;0.90;;
70532;SDS011;58088;51.186;17.130;2024-03-17T12:25:17;5.70;;;0.90;;
70532;SDS011;58088;51.186;17.130;2024-03-17T12:27:45;4.00;;;0.70;;
70532;SDS011;58088;51.186;17.130;2024-03-17T12:30:15;4.40;;;0.70;;
70532;SDS011;58088;51.186;17.130;2024-03-17T12:32:43;6.10;;;0.90;;
70532;SDS011;58088;51.186;17.130;2024-03-17T12:35:14;6.90;;;1.30;;
70532;SDS011;58088;51.186;17.130;2024-03-17T12:37:44;3.30;;;0.70;;
70532;SDS011;58088;51.186;17.130;2024-03-17T12:40:22;4.80;;;0.80;;
70532;SDS011;58088;51.186;17.130;2024-03-17T12:42:49;5.80;;;1.00;;
70532;SDS011;58088;51.186;17.130;2024-03-17T12:45:21;3.80;;;0.60;;
70532;SDS011;58088;51.186;17.130;2024-03-17T12:47:49;6.10;;;0.90;;
70532;SDS011;58088;51.186;17.130;2024-03-17T12:50:17;4.00;;;0.70;;
70532;SDS011;58088;51.186;17.130;2024-03-17T12:52:54;4.80;;;1.00;;
70532;SDS011;58088;51.186;17.130;2024-03-17T12:55:22;5.40;;;0.90;;
70532;SDS011;58088;51.186;17.130;2024-03-17T12:58:09;5.00;;;0.70;;
70532;SDS011;58088;51.186;17.130;2024-03-17T13:01:03;6.30;;;1.10;;
70532;SDS011;58088;51.186;17.130;2024-03-17T13:03:37;3.90;;;1.00;;
70532;SDS011;58088;51.186;17.130;2024-03-17T13:06:08;5.30;;;0.80;;
70532;SDS011;58088;51.186;17.130;2024-03-17T13:08:36;6.10;;;1.20;;
70532;SDS011;58088;51.186;17.130;2024-03-17T13:11:03;5.70;;;1.40;;
70532;SDS011;58088;51.186;17.130;2024-03-17T13:13:35;5.70;;;2.00;;
70532;SDS011;58088;51.186;17.130;2024-03-17T13:16:01;4.20;;;1.00;;
70532;SDS011;58088;51.186;17.130;2024-03-17T13:18:27;6.30;;;0.90;;
70532;SDS011;58088;51.186;17.130;2024-03-17T13:20:53;6.60;;;1.00;;
70532;SDS011;58088;51.186;17.130;2024-03-17T13:23:20;4.40;;;0.70;;
70532;SDS011;58088;51.186;17.130;2024-03-17T13:25:52;3.60;;;0.90;;
70532;SDS011;58088;51.186;17.130;2024-03-17T13:28:19;4.00;;;0.70;;
70532;SDS011;58088;51.186;17.130;2024-03-17T13:30:45;3.70;;;0.70;;
70532;SDS011;58088;51.186;17.130;2024-03-17T13:33:12;2.60;;;0.40;;
70532;SDS011;58088;51.186;17.130;2024-03-17T13:35:39;3.90;;;0.70;;
70532;SDS011;58088;51.186;17.130;2024-03-17T13:38:07;2.40;;;0.60;;
70532;SDS011;58088;51.186;17.130;2024-03-17T13:40:37;4.90;;;0.80;;
70532;SDS011;58088;51.186;17.130;2024-03-17T13:43:05;6.00;;;0.70;;
70532;SDS011;58088;51.186;17.130;2024-03-17T13:45:39;1.90;;;0.40;;
70532;SDS011;58088;51.186;17.130;2024-03-17T13:48:08;3.50;;;0.50;;
70532;SDS011;58088;51.186;17.130;2024-03-17T13:50:39;2.70;;;0.60;;
70532;SDS011;58088;51.186;17.130;2024-03-17T13:53:08;3.40;;;0.50;;
70532;SDS011;58088;51.186;17.130;2024-03-17T13:55:34;3.60;;;0.80;;
70532;SDS011;58088;51.186;17.130;2024-03-17T13:58:01;3.80;;;0.70;;
70532;SDS011;58088;51.186;17.130;2024-03-17T14:00:29;3.70;;;0.60;;
70532;SDS011;58088;51.186;17.130;2024-03-17T14:02:57;3.60;;;0.50;;
70532;SDS011;58088;51.186;17.130;2024-03-17T14:05:25;2.70;;;0.60;;
70532;SDS011;58088;51.186;17.130;2024-03-17T14:07:53;3.60;;;0.70;;
70532;SDS011;58088;51.186;17.130;2024-03-17T14:10:22;1.50;;;0.40;;
70532;SDS011;58088;51.186;17.130;2024-03-17T14:12:49;2.60;;;0.60;;
70532;SDS011;58088;51.186;17.130;2024-03-17T14:15:17;2.60;;;0.40;;
70532;SDS011;58088;51.186;17.130;2024-03-17T14:17:45;3.50;;;0.70;;
70532;SDS011;58088;51.186;17.130;2024-03-17T14:20:13;5.50;;;0.80;;
70532;SDS011;58088;51.186;17.130;2024-03-17T14:22:41;4.90;;;0.80;;
70532;SDS011;58088;51.186;17.130;2024-03-17T14:25:10;4.40;;;0.70;;
70532;SDS011;58088;51.186;17.130;2024-03-17T14:27:40;3.00;;;0.80;;
70532;SDS011;58088;51.186;17.130;2024-03-17T14:30:06;6.30;;;1.10;;
70532;SDS011;58088;51.186;17.130;2024-03-17T14:32:33;3.00;;;0.70;;
70532;SDS011;58088;51.186;17.130;2024-03-17T14:35:00;4.00;;;0.80;;
70532;SDS011;58088;51.186;17.130;2024-03-17T14:37:26;2.30;;;0.60;;
70532;SDS011;58088;51.186;17.130;2024-03-17T14:39:53;4.90;;;0.70;;
70532;SDS011;58088;51.186;17.130;2024-03-17T14:42:20;2.90;;;0.80;;
70532;SDS011;58088;51.186;17.130;2024-03-17T14:44:47;3.30;;;0.70;;
70532;SDS011;58088;51.186;17.130;2024-03-17T14:47:14;4.00;;;0.70;;
70532;SDS011;58088;51.186;17.130;2024-03-17T14:49:41;2.20;;;0.50;;
70532;SDS011;58088;51.186;17.130;2024-03-17T14:52:08;2.50;;;0.50;;
70532;SDS011;58088;51.186;17.130;2024-03-17T14:54:35;4.30;;;0.90;;
70532;SDS011;58088;51.186;17.130;2024-03-17T14:57:01;2.90;;;0.70;;
70532;SDS011;58088;51.186;17.130;2024-03-17T14:59:27;3.90;;;0.60;;
70532;SDS011;58088;51.186;17.130;2024-03-17T15:01:55;3.80;;;0.70;;